createdAt,value
2023-04-19T00:02:42.952Z,1.60
2023-04-19T00:07:45.811Z,1.80
2023-04-19T00:12:48.441Z,1.50
2023-04-19T00:17:51.603Z,1.10
2023-04-19T00:22:54.663Z,1.60
2023-04-19T00:27:57.522Z,1.38
2023-04-19T00:33:00.126Z,1.00
2023-04-19T00:38:02.738Z,0.90
2023-04-19T00:43:05.427Z,1.38
2023-04-19T00:48:09.895Z,0.80
2023-04-19T00:53:14.657Z,0.98
2023-04-19T00:58:18.391Z,1.10
2023-04-19T01:03:21.085Z,1.00
2023-04-19T01:08:26.816Z,1.00
2023-04-19T01:13:29.900Z,0.90
2023-04-19T01:18:37.705Z,0.95
2023-04-19T01:23:41.080Z,1.13
2023-04-19T01:28:43.641Z,1.02
2023-04-19T01:33:46.360Z,0.90
2023-04-19T01:38:50.269Z,1.13
2023-04-19T01:43:53.564Z,1.08
2023-04-19T01:48:56.152Z,0.70
2023-04-19T01:53:58.809Z,0.57
2023-04-19T01:59:01.360Z,0.73
2023-04-19T02:04:04.274Z,0.80
2023-04-19T02:09:07.305Z,0.77
2023-04-19T02:14:10.068Z,1.48
2023-04-19T02:19:12.719Z,1.30
2023-04-19T02:24:16.414Z,1.00
2023-04-19T02:29:19.440Z,0.70
2023-04-19T02:34:21.985Z,1.33
2023-04-19T02:39:24.750Z,0.90
2023-04-19T02:44:27.984Z,1.10
2023-04-19T02:49:48.951Z,0.60
2023-04-19T02:54:52.420Z,1.30
2023-04-19T02:59:55.160Z,0.90
2023-04-19T03:04:57.846Z,1.30
2023-04-19T03:10:00.902Z,0.98
2023-04-19T03:15:04.632Z,0.80
2023-04-19T03:20:12.125Z,1.07
2023-04-19T03:25:15.012Z,1.30
2023-04-19T03:30:22.269Z,1.15
2023-04-19T03:35:26.619Z,1.10
2023-04-19T03:40:34.058Z,1.50
2023-04-19T03:45:37.409Z,1.33
2023-04-19T03:50:40.172Z,1.42
2023-04-19T03:55:43.696Z,1.88
2023-04-19T04:00:46.531Z,1.52
2023-04-19T04:05:50.681Z,1.48
2023-04-19T04:10:54.996Z,1.70
2023-04-19T04:15:58.139Z,1.80
2023-04-19T04:21:01.278Z,2.33
2023-04-19T04:26:05.513Z,1.43
2023-04-19T04:31:24.589Z,1.95
2023-04-19T04:36:30.134Z,1.47
2023-04-19T04:41:33.753Z,1.90
2023-04-19T04:46:36.499Z,1.48
2023-04-19T04:51:39.411Z,1.47
2023-04-19T04:56:42.332Z,1.75
2023-04-19T05:01:45.624Z,2.13
2023-04-19T05:06:49.437Z,2.47
2023-04-19T05:12:00.903Z,1.42
2023-04-19T05:17:07.243Z,1.40
2023-04-19T05:22:10.935Z,1.77
2023-04-19T05:27:15.129Z,1.77
2023-04-19T05:32:18.560Z,1.40
2023-04-19T05:37:27.197Z,1.70
2023-04-19T05:42:30.160Z,1.40
2023-04-19T05:47:33.119Z,1.65
2023-04-19T05:52:50.148Z,1.57
2023-04-19T05:57:52.971Z,1.37
2023-04-19T06:03:01.357Z,1.58
2023-04-19T06:08:05.263Z,1.63
2023-04-19T06:13:07.956Z,1.70
2023-04-19T06:18:19.633Z,1.45
2023-04-19T06:23:23.840Z,1.40
2023-04-19T06:28:26.551Z,2.17
2023-04-19T06:33:29.202Z,1.40
2023-04-19T06:38:32.047Z,1.57
2023-04-19T06:43:35.011Z,1.50
2023-04-19T06:48:38.448Z,1.80
2023-04-19T06:53:41.242Z,2.47
2023-04-19T06:58:46.657Z,1.97
2023-04-19T07:03:50.133Z,2.10
2023-04-19T07:08:54.285Z,1.70
2023-04-19T07:13:57.293Z,2.43
2023-04-19T07:18:59.913Z,2.35
2023-04-19T07:24:02.644Z,2.10
2023-04-19T07:29:05.424Z,2.30
2023-04-19T07:34:08.455Z,2.07
2023-04-19T07:39:11.488Z,2.13
2023-04-19T07:44:14.959Z,2.88
2023-04-19T07:49:23.487Z,2.40
2023-04-19T07:54:26.005Z,3.22
2023-04-19T07:59:30.728Z,1.98
2023-04-19T08:04:33.658Z,2.47
2023-04-19T08:09:38.238Z,2.55
2023-04-19T08:14:56.091Z,3.42
2023-04-19T08:20:04.439Z,3.40
2023-04-19T08:25:08.242Z,2.70
2023-04-19T08:30:12.521Z,3.20
2023-04-19T08:35:18.016Z,2.97
2023-04-19T08:40:20.890Z,2.73
2023-04-19T08:45:29.462Z,3.50
2023-04-19T08:50:38.716Z,2.78
2023-04-19T09:00:58.917Z,4.50
2023-04-19T09:06:02.310Z,3.35
2023-04-19T09:11:05.430Z,3.70
2023-04-19T09:16:23.109Z,4.23
2023-04-19T09:21:30.870Z,5.38
2023-04-19T09:26:34.170Z,3.20
2023-04-19T09:36:47.183Z,4.00
2023-04-19T09:41:53.960Z,5.00
2023-04-19T09:46:56.657Z,4.27
2023-04-19T09:51:59.333Z,4.07
2023-04-19T09:57:03.112Z,3.20
2023-04-19T10:02:07.723Z,3.60
2023-04-19T10:17:25.296Z,3.67
2023-04-19T10:22:28.761Z,3.17
2023-04-19T10:27:36.244Z,3.33
2023-04-19T10:32:43.764Z,3.00
2023-04-19T10:38:08.204Z,3.43
2023-04-19T10:43:13.683Z,3.10
2023-04-19T10:48:33.556Z,3.45
2023-04-19T10:53:45.249Z,3.80
2023-04-19T10:59:08.449Z,3.90
2023-04-19T11:04:16.524Z,3.10
2023-04-19T11:09:26.214Z,3.75
2023-04-19T11:14:35.493Z,3.43
2023-04-19T11:19:37.975Z,3.05
2023-04-19T11:24:47.311Z,3.53
2023-04-19T11:29:49.886Z,2.93
2023-04-19T11:34:52.430Z,2.92
2023-04-19T11:39:55.127Z,2.83
2023-04-19T11:50:37.682Z,3.00
2023-04-19T11:55:54.823Z,3.13
2023-04-19T12:01:02.933Z,2.80
2023-04-19T12:06:12.112Z,3.60
2023-04-19T12:11:15.899Z,2.50
2023-04-19T12:16:28.488Z,2.67
2023-04-19T12:21:35.064Z,2.37
2023-04-19T12:26:54.613Z,2.45
2023-04-19T12:32:01.767Z,2.42
2023-04-19T12:37:07.044Z,2.20
2023-04-19T12:42:09.621Z,2.60
2023-04-19T12:47:14.564Z,2.30
2023-04-19T12:52:17.334Z,2.88
2023-04-19T12:57:19.948Z,2.93
2023-04-19T13:02:25.483Z,2.53
2023-04-19T13:07:28.873Z,2.80
2023-04-19T13:12:31.583Z,4.00
2023-04-19T13:17:35.996Z,2.60
2023-04-19T13:22:41.621Z,2.95
2023-04-19T13:27:44.401Z,3.60
2023-04-19T13:32:47.057Z,4.00
2023-04-19T13:37:51.504Z,3.60
2023-04-19T13:42:57.124Z,3.60
2023-04-19T13:47:59.886Z,3.20
2023-04-19T13:53:02.505Z,2.80
2023-04-19T13:58:05.137Z,2.55
2023-04-19T14:03:07.885Z,3.20
2023-04-19T14:08:10.741Z,2.65
2023-04-19T14:13:13.386Z,2.45
2023-04-19T14:18:16.005Z,2.70
2023-04-19T14:23:18.652Z,2.47
2023-04-19T14:28:21.212Z,2.47
2023-04-19T14:33:24.344Z,3.30
2023-04-19T14:38:27.241Z,3.00
2023-04-19T14:43:30.346Z,2.65
2023-04-19T14:48:33.051Z,3.13
2023-04-19T14:53:35.938Z,2.47
2023-04-19T14:58:38.707Z,2.95
2023-04-19T15:03:41.794Z,2.33
2023-04-19T15:08:44.595Z,2.10
2023-04-19T15:13:47.319Z,2.23
2023-04-19T15:18:51.864Z,1.92
2023-04-19T15:23:54.791Z,1.98
2023-04-19T15:28:58.126Z,1.67
2023-04-19T15:34:04.534Z,1.80
2023-04-19T15:39:07.267Z,1.77
2023-04-19T15:44:12.455Z,1.70
2023-04-19T15:49:15.428Z,1.98
2023-04-19T15:54:22.580Z,1.90
2023-04-19T15:59:25.104Z,2.57
2023-04-19T16:04:27.946Z,2.00
2023-04-19T16:09:30.730Z,2.03
2023-04-19T16:14:33.310Z,1.73
2023-04-19T16:19:35.938Z,1.53
2023-04-19T16:24:38.716Z,1.80
2023-04-19T16:29:41.474Z,1.95
2023-04-19T16:34:44.104Z,2.27
2023-04-19T16:39:46.709Z,1.80
2023-04-19T16:44:49.422Z,1.52
2023-04-19T16:49:53.407Z,1.50
2023-04-19T16:54:58.142Z,1.58
2023-04-19T17:00:01.349Z,1.52
2023-04-19T17:05:08.055Z,2.10
2023-04-19T17:10:11.047Z,2.42
2023-04-19T17:15:14.091Z,2.22
2023-04-19T17:20:19.988Z,1.77
2023-04-19T17:25:23.757Z,2.00
2023-04-19T17:30:26.580Z,1.70
2023-04-19T17:35:33.332Z,1.43
2023-04-19T17:40:42.128Z,2.08
2023-04-19T17:45:44.821Z,1.50
2023-04-19T17:50:48.446Z,1.40
2023-04-19T17:55:51.392Z,1.10
2023-04-19T18:00:54.346Z,0.90
2023-04-19T18:05:57.151Z,1.53
2023-04-19T18:10:59.857Z,1.30
2023-04-19T18:16:04.018Z,1.20
2023-04-19T18:21:07.104Z,1.47
2023-04-19T18:26:09.714Z,1.10
2023-04-19T18:31:12.365Z,1.30
2023-04-19T18:36:15.288Z,1.50
2023-04-19T18:41:17.832Z,1.48
2023-04-19T18:46:22.052Z,1.63
2023-04-19T18:51:25.161Z,1.60
2023-04-19T18:57:03.840Z,1.20
2023-04-19T19:01:51.870Z,1.30
2023-04-19T19:06:54.679Z,1.00
2023-04-19T19:11:57.336Z,1.05
2023-04-19T19:17:00.149Z,1.00
2023-04-19T19:22:03.790Z,1.20
2023-04-19T19:27:07.057Z,1.50
2023-04-19T19:32:09.989Z,0.90
2023-04-19T19:37:13.082Z,1.53
2023-04-19T19:42:19.411Z,1.20
2023-04-19T19:47:23.571Z,1.07
2023-04-19T19:52:28.552Z,1.00
2023-04-19T20:02:54.235Z,1.67
2023-04-19T20:08:10.651Z,1.10
2023-04-19T20:13:14.033Z,0.90
2023-04-19T20:18:17.259Z,1.57
2023-04-19T20:23:22.837Z,0.90
2023-04-19T20:28:26.340Z,0.95
2023-04-19T20:33:28.865Z,1.00
2023-04-19T20:38:32.292Z,1.15
2023-04-19T20:43:34.806Z,1.08
2023-04-19T20:48:37.623Z,1.07
2023-04-19T20:53:40.227Z,1.13
2023-04-19T20:58:42.860Z,1.70
2023-04-19T21:03:46.482Z,1.30
2023-04-19T21:08:49.293Z,1.48
2023-04-19T21:13:52.016Z,1.50
2023-04-19T21:18:55.448Z,1.33
2023-04-19T21:23:58.134Z,1.30
2023-04-19T21:29:01.877Z,2.30
2023-04-19T21:34:04.728Z,1.80
2023-04-19T21:39:07.280Z,1.40
2023-04-19T21:44:10.469Z,2.10
2023-04-19T21:49:13.155Z,1.50
2023-04-19T21:54:31.023Z,1.73
2023-04-19T21:59:37.592Z,1.80
2023-04-19T22:04:41.841Z,1.55
2023-04-19T22:09:44.833Z,1.60
2023-04-19T22:14:47.322Z,1.45
2023-04-19T22:19:54.410Z,1.50
2023-04-19T22:24:58.245Z,1.50
2023-04-19T22:30:00.886Z,1.55
2023-04-19T22:35:06.290Z,2.10
2023-04-19T22:40:09.801Z,2.22
2023-04-19T22:45:13.018Z,2.08
2023-04-19T22:50:15.819Z,1.73
2023-04-19T22:55:18.393Z,2.10
2023-04-19T23:00:21.560Z,1.70
2023-04-19T23:05:25.670Z,1.60
2023-04-19T23:10:32.001Z,1.42
2023-04-19T23:15:34.862Z,1.73
2023-04-19T23:20:37.868Z,1.25
2023-04-19T23:25:40.576Z,1.53
2023-04-19T23:30:43.049Z,1.60
2023-04-19T23:35:45.652Z,1.45
2023-04-19T23:40:48.219Z,2.30
2023-04-19T23:45:50.803Z,1.38
2023-04-19T23:50:53.455Z,1.53
2023-04-19T23:55:56.191Z,1.50
